Time;durP1;ratioP1;P1;durP2;ratioP2;P2;SDS_P1;SDS_P2;PMS_P1;PMS_P2;Temp;Humidity;BMP_temperature;BMP_pressure;BME280_temperature;BME280_humidity;BME280_pressure;Samples;Min_cycle;Max_cycle;Signal;HPM_P1;HPM_P2
2021/06/18 00:00:54;;;;;;;8.30;4.55;;;;;;;19.21;100.00;101032.38;1712641;83;21064;-75
2021/06/18 00:03:21;;;;;;;9.48;5.45;;;;;;;19.22;100.00;101027.44;1666486;86;20983;-80
2021/06/18 00:05:49;;;;;;;6.12;5.00;;;;;;;19.19;100.00;101032.52;1712061;83;20990;-79
2021/06/18 00:08:16;;;;;;;11.38;5.65;;;;;;;19.18;100.00;101043.17;1672713;84;20999;-74
2021/06/18 00:10:43;;;;;;;8.53;5.40;;;;;;;19.18;100.00;101035.27;1673840;85;21117;-82
2021/06/18 00:13:10;;;;;;;6.40;5.65;;;;;;;19.17;100.00;101043.68;1673661;85;21028;-81
2021/06/18 00:15:37;;;;;;;7.50;5.15;;;;;;;19.17;100.00;101044.16;1673493;85;21011;-77
2021/06/18 00:18:05;;;;;;;6.90;5.10;;;;;;;19.17;100.00;101049.42;1673812;85;21078;-80
2021/06/18 00:20:32;;;;;;;7.45;5.28;;;;;;;19.15;100.00;101045.61;1673699;85;21051;-75
2021/06/18 00:22:59;;;;;;;6.08;5.30;;;;;;;19.15;100.00;101045.61;1673706;85;21116;-77
2021/06/18 00:25:27;;;;;;;6.92;5.35;;;;;;;19.14;100.00;101053.19;1673488;85;21020;-80
2021/06/18 00:27:56;;;;;;;8.65;5.50;;;;;;;19.12;100.00;101044.59;1673643;85;20964;-77
2021/06/18 00:30:23;;;;;;;5.22;4.70;;;;;;;19.11;100.00;101040.81;1673437;85;21004;-72
2021/06/18 00:32:50;;;;;;;9.15;5.65;;;;;;;19.12;100.00;101035.87;1673392;85;21024;-79
2021/06/18 00:35:17;;;;;;;6.22;4.92;;;;;;;19.15;100.00;101031.62;1673863;85;21918;-79
2021/06/18 00:37:43;;;;;;;5.85;5.30;;;;;;;19.16;100.00;101023.59;1683920;84;20991;-74
2021/06/18 00:40:11;;;;;;;7.17;5.08;;;;;;;19.18;100.00;101027.37;1683948;85;20977;-75
2021/06/18 00:42:38;;;;;;;8.03;5.95;;;;;;;19.18;100.00;101024.27;1683956;85;21740;-76
2021/06/18 00:45:07;;;;;;;7.80;5.33;;;;;;;19.17;100.00;101020.00;1716222;83;20919;-72
2021/06/18 00:47:34;;;;;;;5.53;5.03;;;;;;;19.16;100.00;101019.66;1715464;82;21083;-81
2021/06/18 00:50:00;;;;;;;5.95;5.30;;;;;;;19.15;100.00;101015.36;1683232;85;21467;-77
2021/06/18 00:52:27;;;;;;;5.50;4.87;;;;;;;19.13;100.00;101021.27;1693037;83;20972;-75
2021/06/18 00:54:54;;;;;;;5.75;4.60;;;;;;;19.13;100.00;101019.95;1683185;85;20988;-79
2021/06/18 00:57:20;;;;;;;6.40;5.67;;;;;;;19.12;100.00;101020.08;1674004;85;21015;-78
2021/06/18 00:59:47;;;;;;;6.70;5.53;;;;;;;19.12;100.00;101020.08;1661781;85;21272;-76
2021/06/18 01:02:14;;;;;;;6.85;4.95;;;;;;;19.11;100.00;101013.19;1715123;83;21601;-79
2021/06/18 01:04:40;;;;;;;5.87;5.25;;;;;;;19.10;100.00;101013.67;1722842;83;21026;-80
2021/06/18 01:07:17;;;;;;;5.97;5.37;;;;;;;19.10;100.00;101002.31;1669854;83;21030;-76
2021/06/18 01:10:11;;;;;;;7.05;5.58;;;;;;;19.07;100.00;101010.02;1715249;83;21003;-77
2021/06/18 01:12:49;;;;;;;6.08;5.35;;;;;;;19.05;100.00;101004.06;1673158;85;21127;-78
2021/06/18 01:15:28;;;;;;;7.53;6.10;;;;;;;19.02;100.00;101007.81;1715274;83;20952;-75
2021/06/18 01:18:01;;;;;;;7.80;5.65;;;;;;;19.00;100.00;101007.63;1672763;85;21072;-77
2021/06/18 01:20:42;;;;;;;6.75;5.08;;;;;;;18.98;100.00;101006.96;1692725;83;20980;-79
2021/06/18 01:23:22;;;;;;;;;;;;;;;18.98;100.00;101017.48;1675707;85;21419;-75
2021/06/18 01:25:54;;;;;;;5.87;5.15;;;;;;;18.98;100.00;101012.22;1667593;85;21757;-75
2021/06/18 01:28:41;;;;;;;5.83;5.25;;;;;;;18.95;100.00;101015.95;1684216;85;20965;-75
2021/06/18 01:31:11;;;;;;;7.83;5.03;;;;;;;18.94;100.00;101014.31;1672907;85;20964;-77
2021/06/18 01:33:38;;;;;;;5.80;5.20;;;;;;;18.97;100.00;101018.44;1715207;82;20972;-75
2021/06/18 01:36:05;;;;;;;9.28;5.58;;;;;;;18.99;100.00;101012.54;1715304;83;21834;-73
2021/06/18 01:38:34;;;;;;;7.37;5.65;;;;;;;19.00;100.00;101015.52;1651816;85;21798;-76
2021/06/18 01:41:04;;;;;;;7.10;5.00;;;;;;;19.00;100.00;101015.52;1692900;83;20991;-76
2021/06/18 01:43:31;;;;;;;7.70;5.00;;;;;;;19.00;100.00;101011.09;1715507;83;20943;-73
2021/06/18 01:45:58;;;;;;;7.47;5.42;;;;;;;19.00;100.00;101007.63;1715558;83;20931;-70
2021/06/18 01:48:25;;;;;;;6.33;5.28;;;;;;;18.99;100.00;101005.48;1673064;85;21023;-80
2021/06/18 01:50:53;;;;;;;5.67;5.17;;;;;;;18.97;100.00;101008.75;1715405;83;21201;-80
2021/06/18 01:53:21;;;;;;;5.83;5.22;;;;;;;18.96;100.00;101011.52;1673321;85;21011;-76
2021/06/18 01:55:49;;;;;;;5.35;4.87;;;;;;;18.95;100.00;101011.20;1715444;83;21007;-75
2021/06/18 01:58:18;;;;;;;7.20;5.28;;;;;;;18.93;100.00;101013.95;1673228;85;21106;-76
2021/06/18 02:00:48;;;;;;;5.53;5.00;;;;;;;18.92;100.00;101015.44;1715454;83;21075;-76
2021/06/18 02:03:18;;;;;;;6.58;5.08;;;;;;;18.90;100.00;101019.52;1673192;85;21583;-77
2021/06/18 02:05:44;;;;;;;5.95;4.78;;;;;;;18.89;100.00;101014.41;1715510;83;20947;-78
2021/06/18 02:08:12;;;;;;;6.20;4.90;;;;;;;18.86;100.00;101013.36;1715186;83;21104;-76
2021/06/18 02:10:43;;;;;;;5.50;5.00;;;;;;;18.86;100.00;101014.67;1666338;86;20919;-76
2021/06/18 02:13:11;;;;;;;5.70;4.77;;;;;;;18.87;100.00;101013.72;1712962;83;21013;-74
2021/06/18 02:15:41;;;;;;;5.53;4.80;;;;;;;18.87;100.00;101011.92;1638523;86;21205;-77
2021/06/18 02:18:11;;;;;;;7.60;4.90;;;;;;;18.89;100.00;101006.53;1712807;83;21447;-81
2021/06/18 02:20:38;;;;;;;5.97;4.70;;;;;;;18.88;100.00;101001.75;1712925;83;20987;-72
2021/06/18 02:23:09;;;;;;;8.68;5.35;;;;;;;18.86;100.00;100999.73;1666369;86;21561;-76
2021/06/18 02:25:39;;;;;;;5.28;4.72;;;;;;;18.86;100.00;100998.91;1644470;85;21031;-78
2021/06/18 02:28:06;;;;;;;5.97;5.15;;;;;;;18.85;100.00;100993.32;1664716;86;21169;-78
2021/06/18 02:30:33;;;;;;;5.28;4.78;;;;;;;18.83;100.00;100988.20;1669433;85;21103;-75
2021/06/18 02:33:00;;;;;;;7.90;5.30;;;;;;;18.82;100.00;100989.19;1713446;83;20947;-76
2021/06/18 02:35:27;;;;;;;7.12;5.28;;;;;;;18.81;100.00;100986.21;1667208;86;20980;-77
2021/06/18 02:37:54;;;;;;;7.83;5.53;;;;;;;18.84;100.00;100990.34;1713301;83;21007;-75
2021/06/18 02:40:21;;;;;;;6.25;4.50;;;;;;;18.84;100.00;100987.71;1713281;83;21095;-80
2021/06/18 02:42:48;;;;;;;9.08;5.35;;;;;;;18.85;100.00;100986.75;1666571;86;20998;-78
2021/06/18 02:45:16;;;;;;;6.58;5.10;;;;;;;18.86;100.00;100991.02;1712698;83;21071;-80
2021/06/18 02:47:55;;;;;;;7.45;4.70;;;;;;;18.85;100.00;100990.69;1666313;86;21050;-75
2021/06/18 02:50:37;;;;;;;7.10;4.78;;;;;;;18.86;100.00;100993.16;1712334;83;21057;-76
2021/06/18 02:53:12;;;;;;;6.58;5.05;;;;;;;18.88;100.00;100996.49;1713041;83;21960;-76
2021/06/18 02:56:23;;;;;;;8.83;5.90;;;;;;;18.87;100.00;100998.77;1666263;86;20951;-75
2021/06/18 02:59:07;;;;;;;6.10;5.10;;;;;;;18.87;100.00;101007.14;1712527;83;21017;-76
2021/06/18 03:01:38;;;;;;;6.42;5.37;;;;;;;18.89;100.00;101012.59;1713063;83;20991;-74
2021/06/18 03:04:08;;;;;;;6.33;5.17;;;;;;;18.90;100.00;101014.73;1712746;83;20952;-80
2021/06/18 03:06:35;;;;;;;5.40;4.90;;;;;;;18.91;100.00;101009.83;1666367;86;21123;-81
2021/06/18 03:09:05;;;;;;;7.05;5.33;;;;;;;18.93;100.00;101022.33;1678191;84;22318;-73
2021/06/18 03:11:38;;;;;;;6.62;4.92;;;;;;;18.91;100.00;101035.64;1712397;83;20956;-76
2021/06/18 03:14:11;;;;;;;6.45;5.05;;;;;;;18.90;100.00;101041.87;1666423;86;21502;-76
2021/06/18 03:16:40;;;;;;;5.87;5.20;;;;;;;18.88;100.00;101043.83;1712013;83;20896;-74
2021/06/18 03:19:08;;;;;;;7.50;5.20;;;;;;;18.87;100.00;101039.53;1712692;83;21067;-77
2021/06/18 03:21:36;;;;;;;5.83;5.22;;;;;;;18.87;100.00;101032.12;1666314;86;21509;-75
2021/06/18 03:24:07;;;;;;;6.25;4.90;;;;;;;18.86;100.00;101033.92;1712259;83;20991;-75
2021/06/18 03:26:33;;;;;;;6.80;5.22;;;;;;;18.86;100.00;101029.14;1712720;83;21471;-70
2021/06/18 03:29:01;;;;;;;5.40;4.85;;;;;;;18.87;100.00;101032.12;1665793;86;21007;-80
2021/06/18 03:31:27;;;;;;;6.08;5.15;;;;;;;18.88;100.00;101021.95;1664615;85;21161;-77
2021/06/18 03:33:55;;;;;;;5.50;5.00;;;;;;;18.89;100.00;101022.30;1664342;86;21509;-74
2021/06/18 03:36:25;;;;;;;6.42;5.30;;;;;;;18.89;100.00;101007.33;1664576;86;21455;-75
2021/06/18 03:38:54;;;;;;;6.72;5.55;;;;;;;18.89;100.00;101009.95;1618201;86;21669;-77
2021/06/18 03:41:21;;;;;;;5.62;5.12;;;;;;;18.89;100.00;101003.38;1666604;84;21004;-75
2021/06/18 03:43:49;;;;;;;5.55;5.05;;;;;;;18.89;100.00;101003.89;1712437;83;21137;-75
2021/06/18 03:46:16;;;;;;;8.03;5.08;;;;;;;18.90;100.00;101015.56;1712780;83;21419;-73
2021/06/18 03:48:44;;;;;;;7.15;4.92;;;;;;;18.93;100.00;101019.70;1712649;83;20979;-71
2021/06/18 03:51:11;;;;;;;5.62;5.12;;;;;;;18.96;100.00;101028.61;1638042;86;20998;-74
2021/06/18 03:53:38;;;;;;;6.85;4.90;;;;;;;19.00;100.00;101036.56;1712237;83;21550;-72
2021/06/18 03:56:05;;;;;;;5.40;4.85;;;;;;;19.02;100.00;101039.86;1712607;83;21125;-74
2021/06/18 03:58:33;;;;;;;4.87;4.47;;;;;;;19.04;100.00;101047.14;1712489;83;20963;-76
2021/06/18 04:01:00;;;;;;;7.15;5.00;;;;;;;19.08;100.00;101045.84;1712605;83;20991;-76
2021/06/18 04:03:27;;;;;;;6.10;5.08;;;;;;;19.11;100.00;101048.22;1616216;86;21588;-76
2021/06/18 04:06:00;;;;;;;6.53;5.58;;;;;;;19.12;100.00;101049.85;1683752;83;21210;-80
2021/06/18 04:08:28;;;;;;;7.53;5.40;;;;;;;19.13;100.00;101051.52;1666421;86;21786;-80
2021/06/18 04:10:54;;;;;;;7.60;5.12;;;;;;;19.16;100.00;101047.76;1730756;82;20978;-75
2021/06/18 04:13:23;;;;;;;7.22;5.15;;;;;;;19.17;100.00;101052.89;1698478;84;21057;-77
2021/06/18 04:15:50;;;;;;;7.47;5.03;;;;;;;19.20;100.00;101044.70;1733206;82;20994;-74
2021/06/18 04:18:21;;;;;;;6.30;5.25;;;;;;;19.22;100.00;101053.27;1733399;82;21001;-71
2021/06/18 04:20:50;;;;;;;6.75;5.67;;;;;;;19.25;100.00;101053.45;1733249;82;21080;-73
2021/06/18 04:23:18;;;;;;;9.68;5.60;;;;;;;19.26;100.00;101044.59;1696690;84;20939;-76
2021/06/18 04:25:45;;;;;;;6.35;5.08;;;;;;;19.26;100.00;101041.48;1702740;82;20978;-75
2021/06/18 04:28:11;;;;;;;7.10;6.28;;;;;;;19.29;100.00;101042.98;1733376;82;20888;-71
2021/06/18 04:30:38;;;;;;;8.23;6.55;;;;;;;19.32;100.00;101040.05;1733490;82;21007;-75
2021/06/18 04:33:06;;;;;;;6.83;6.17;;;;;;;19.36;100.00;101042.25;1698499;84;21226;-73
2021/06/18 04:35:33;;;;;;;7.35;5.60;;;;;;;19.38;100.00;101042.08;1693806;84;21552;-72
2021/06/18 04:38:00;;;;;;;6.50;5.65;;;;;;;19.40;100.00;101049.39;1693928;84;20967;-72
2021/06/18 04:40:27;;;;;;;9.43;5.97;;;;;;;19.43;100.00;101044.63;1693399;84;20967;-75
2021/06/18 04:42:54;;;;;;;5.85;5.30;;;;;;;19.48;100.00;101042.89;1693758;84;21015;-78
2021/06/18 04:45:21;;;;;;;6.20;5.00;;;;;;;19.50;100.00;101047.02;1687736;84;21618;-75
2021/06/18 04:47:47;;;;;;;6.22;4.92;;;;;;;19.53;100.00;101047.20;1733660;82;21029;-79
2021/06/18 04:50:15;;;;;;;7.10;4.90;;;;;;;19.57;100.00;101047.73;1733425;82;20994;-74
2021/06/18 04:52:42;;;;;;;7.47;4.95;;;;;;;19.62;100.00;101046.33;1733586;82;21005;-77
2021/06/18 04:55:15;;;;;;;7.10;5.50;;;;;;;19.67;100.00;101044.55;1696868;84;21577;-76
2021/06/18 04:57:39;;;;;;;9.55;5.30;;;;;;;19.71;100.00;101040.64;1703286;82;21297;-74
2021/06/18 05:00:08;;;;;;;10.03;5.12;;;;;;;19.78;100.00;101043.02;1698056;84;20955;-75
2021/06/18 05:02:35;;;;;;;8.70;4.97;;;;;;;19.82;100.00;101039.91;1733577;82;20970;-79
2021/06/18 05:05:03;;;;;;;10.32;5.50;;;;;;;19.92;100.00;101045.93;1733549;82;21525;-74
2021/06/18 05:07:30;;;;;;;7.78;5.40;;;;;;;19.98;100.00;101047.12;1698236;84;20947;-76
2021/06/18 05:09:58;;;;;;;11.22;5.53;;;;;;;20.03;100.00;101040.92;1722904;82;20952;-78
2021/06/18 05:12:24;;;;;;;5.75;5.15;;;;;;;20.05;100.00;101037.15;1709951;83;20912;-80
2021/06/18 05:14:53;;;;;;;8.33;5.60;;;;;;;20.10;100.00;101030.60;1703043;83;21023;-80
2021/06/18 05:17:20;;;;;;;9.70;5.30;;;;;;;20.11;100.00;101034.38;1702931;84;21042;-76
2021/06/18 05:19:46;;;;;;;5.37;4.90;;;;;;;20.15;100.00;101027.83;1659162;86;20959;-80
2021/06/18 05:22:13;;;;;;;7.55;5.33;;;;;;;20.22;100.00;101028.05;1702780;84;21621;-73
2021/06/18 05:24:42;;;;;;;5.30;4.60;;;;;;;20.30;100.00;101023.68;1702831;84;20909;-76
2021/06/18 05:27:08;;;;;;;5.65;5.10;;;;;;;20.40;100.00;101025.72;1702828;84;21012;-78
2021/06/18 05:29:36;;;;;;;4.97;4.55;;;;;;;20.50;100.00;101025.12;1702857;84;20963;-74
2021/06/18 05:32:04;;;;;;;7.55;4.30;;;;;;;20.60;100.00;101017.11;1702944;84;21052;-81
2021/06/18 05:34:33;;;;;;;10.60;4.95;;;;;;;20.70;100.00;101019.14;1659044;85;20994;-73
2021/06/18 05:37:01;;;;;;;4.65;4.20;;;;;;;20.80;100.00;101020.34;1659380;85;20996;-78
2021/06/18 05:39:28;;;;;;;6.78;4.75;;;;;;;20.89;100.00;101020.70;1659219;86;21480;-75
2021/06/18 05:41:55;;;;;;;3.65;3.30;;;;;;;20.96;100.00;101015.12;1659218;86;20955;-76
2021/06/18 05:44:22;;;;;;;6.53;3.45;;;;;;;21.01;100.00;101016.78;1659224;86;21019;-77
2021/06/18 05:46:49;;;;;;;24.20;3.87;;;;;;;21.05;100.00;101007.08;1659243;84;21160;-80
2021/06/18 05:49:16;;;;;;;6.72;3.30;;;;;;;21.12;99.36;101013.89;1659209;84;21098;-77
2021/06/18 05:51:43;;;;;;;2.67;2.33;;;;;;;21.18;97.77;101012.42;1659162;86;21557;-77
2021/06/18 05:54:13;;;;;;;3.00;2.67;;;;;;;21.19;95.01;101006.16;1659270;86;20979;-80
2021/06/18 05:56:40;;;;;;;7.80;3.08;;;;;;;21.21;94.30;101009.45;1659153;85;21065;-77
2021/06/18 05:59:08;;;;;;;3.50;3.00;;;;;;;21.20;92.08;101012.59;1659092;86;21168;-78
2021/06/18 06:01:35;;;;;;;8.48;2.92;;;;;;;21.18;90.99;101011.93;1659279;85;21510;-76
2021/06/18 06:04:02;;;;;;;7.00;2.65;;;;;;;21.19;90.11;101015.40;1659303;84;20972;-75
2021/06/18 06:06:33;;;;;;;4.50;2.75;;;;;;;21.18;90.57;101010.61;1664207;83;21046;-77
2021/06/18 06:09:06;;;;;;;4.97;2.40;;;;;;;21.30;92.10;101004.52;1687268;84;20963;-81
2021/06/18 06:11:38;;;;;;;7.83;3.22;;;;;;;21.43;91.54;101010.16;1680511;83;21140;-78
2021/06/18 06:14:05;;;;;;;8.38;3.12;;;;;;;21.58;90.49;101019.08;1679743;85;21045;-73
2021/06/18 06:16:35;;;;;;;5.15;3.52;;;;;;;21.64;88.36;101011.34;1679931;84;21553;-74
2021/06/18 06:19:03;;;;;;;5.20;3.30;;;;;;;21.64;86.29;101007.38;1656659;85;21312;-75
2021/06/18 06:21:32;;;;;;;3.30;2.95;;;;;;;21.60;86.01;101004.72;1678154;84;21117;-77
2021/06/18 06:23:59;;;;;;;5.58;3.40;;;;;;;21.53;86.15;100999.78;1678467;84;21129;-80
2021/06/18 06:26:28;;;;;;;4.95;3.58;;;;;;;21.50;86.97;100993.52;1679017;84;21104;-78
2021/06/18 06:28:57;;;;;;;6.22;3.00;;;;;;;21.48;84.96;100990.19;1679090;84;21108;-75
2021/06/18 06:31:25;;;;;;;3.98;3.17;;;;;;;21.44;85.52;100991.50;1679039;84;21077;-72
2021/06/18 06:33:54;;;;;;;8.53;3.37;;;;;;;21.43;85.03;100987.23;1679616;84;21053;-77
2021/06/18 06:36:21;;;;;;;3.45;3.15;;;;;;;21.42;85.25;100977.64;1679355;85;21794;-76
2021/06/18 06:38:48;;;;;;;7.37;3.12;;;;;;;21.44;85.47;100981.45;1679571;84;21674;-77
2021/06/18 06:41:16;;;;;;;3.83;3.30;;;;;;;21.48;85.83;100983.59;1679740;85;21548;-76
2021/06/18 06:43:47;;;;;;;4.72;3.20;;;;;;;21.55;85.39;100981.12;1678952;85;21081;-74
2021/06/18 06:46:21;;;;;;;3.77;3.10;;;;;;;21.59;83.44;100987.73;1679162;85;21061;-78
2021/06/18 06:48:48;;;;;;;4.67;2.90;;;;;;;21.62;83.01;100988.23;1679487;84;21628;-75
2021/06/18 06:51:16;;;;;;;4.58;2.70;;;;;;;21.71;82.85;100998.30;1678522;84;21074;-78
2021/06/18 06:53:43;;;;;;;3.92;2.98;;;;;;;21.75;81.04;100992.19;1679303;84;21076;-75
2021/06/18 06:56:11;;;;;;;4.87;4.47;;;;;;;21.79;80.48;100993.03;1679460;85;21098;-76
2021/06/18 06:58:38;;;;;;;5.65;3.30;;;;;;;21.86;80.39;100999.77;1678809;84;21025;-75
2021/06/18 07:01:06;;;;;;;7.08;3.27;;;;;;;21.89;77.52;100993.69;1679327;85;21099;-78
2021/06/18 07:03:34;;;;;;;5.53;3.30;;;;;;;21.86;77.27;100990.52;1678648;85;21033;-78
2021/06/18 07:06:02;;;;;;;3.27;2.83;;;;;;;21.88;78.12;100984.11;1678858;84;21121;-74
2021/06/18 07:08:31;;;;;;;3.27;2.70;;;;;;;21.92;75.75;100987.27;1679028;84;21029;-74
2021/06/18 07:11:00;;;;;;;4.05;2.50;;;;;;;21.95;75.69;100992.23;1682614;83;21104;-80
2021/06/18 07:13:28;;;;;;;4.80;2.90;;;;;;;22.02;76.15;100987.90;1686007;83;21882;-74
2021/06/18 07:15:59;;;;;;;6.65;3.20;;;;;;;22.09;75.61;100988.89;1686302;85;21088;-75
2021/06/18 07:18:27;;;;;;;9.75;3.37;;;;;;;22.11;74.06;100999.61;1686615;84;21672;-79
2021/06/18 07:20:55;;;;;;;6.65;3.02;;;;;;;22.12;74.44;101002.59;1685846;83;21138;-76
2021/06/18 07:23:25;;;;;;;3.37;2.83;;;;;;;22.15;75.43;100994.82;1686181;84;21053;-76
2021/06/18 07:25:53;;;;;;;8.18;3.30;;;;;;;22.24;75.05;101002.27;1686012;83;21205;-77
2021/06/18 07:28:20;;;;;;;6.95;3.05;;;;;;;22.30;76.33;100997.62;1686008;83;21722;-74
2021/06/18 07:30:48;;;;;;;5.17;3.98;;;;;;;22.42;75.55;100997.09;1704181;82;20994;-74
2021/06/18 07:33:15;;;;;;;6.58;3.10;;;;;;;22.53;72.92;100994.06;1686031;83;21121;-76
2021/06/18 07:35:42;;;;;;;5.47;2.77;;;;;;;22.66;72.50;100997.03;1688130;84;21132;-79
2021/06/18 07:38:09;;;;;;;4.75;2.95;;;;;;;22.81;71.58;100998.48;1686350;84;21202;-75
2021/06/18 07:40:38;;;;;;;3.52;2.33;;;;;;;22.95;71.81;101000.38;1686765;84;21610;-72
2021/06/18 07:43:06;;;;;;;7.62;2.50;;;;;;;23.02;70.09;100991.25;1686763;83;21124;-71
2021/06/18 07:45:33;;;;;;;4.08;2.55;;;;;;;23.04;70.31;100990.07;1686753;85;21115;-78
2021/06/18 07:48:02;;;;;;;7.03;3.12;;;;;;;23.07;70.33;100997.66;1687398;85;21033;-79
2021/06/18 07:50:29;;;;;;;8.83;3.52;;;;;;;23.13;69.71;100998.81;1686406;85;21713;-75
2021/06/18 07:53:01;;;;;;;5.22;2.30;;;;;;;23.18;68.66;100996.45;1685718;83;21580;-75
2021/06/18 07:55:30;;;;;;;2.22;1.92;;;;;;;23.24;67.93;100989.13;1686648;83;20987;-77
2021/06/18 07:57:57;;;;;;;4.37;2.17;;;;;;;23.31;67.15;100983.96;1686266;83;21052;-78
2021/06/18 08:00:25;;;;;;;6.95;2.30;;;;;;;23.35;67.01;100993.21;1686246;83;21587;-75
2021/06/18 08:02:52;;;;;;;5.92;3.22;;;;;;;23.34;65.15;100984.94;1682408;85;21169;-74
2021/06/18 08:05:19;;;;;;;7.17;2.77;;;;;;;23.31;65.53;100978.67;1672326;85;21080;-80
2021/06/18 08:07:47;;;;;;;8.60;4.17;;;;;;;23.34;65.38;100987.58;1658149;85;21080;-74
2021/06/18 08:10:15;;;;;;;20.30;6.78;;;;;;;23.41;65.38;100984.09;1657094;85;20993;-73
2021/06/18 08:12:45;;;;;;;8.45;3.10;;;;;;;23.50;65.44;100987.00;1657711;86;21049;-75
2021/06/18 08:15:14;;;;;;;2.52;2.25;;;;;;;23.57;66.55;100984.47;1673794;83;21153;-76
2021/06/18 08:17:42;;;;;;;7.15;2.15;;;;;;;23.64;67.22;100988.07;1686469;84;21403;-79
2021/06/18 08:20:11;;;;;;;3.92;2.40;;;;;;;23.69;67.05;100983.05;1686257;84;21602;-76
2021/06/18 08:22:39;;;;;;;6.30;2.50;;;;;;;23.74;65.84;100989.15;1686220;84;21054;-73
2021/06/18 08:25:07;;;;;;;6.87;2.40;;;;;;;23.77;66.86;100994.92;1686392;83;21230;-76
2021/06/18 08:27:34;;;;;;;11.33;2.40;;;;;;;23.87;65.49;100996.80;1686785;85;21957;-74
2021/06/18 08:30:01;;;;;;;5.80;2.22;;;;;;;23.95;63.76;100986.13;1687098;84;21056;-73
2021/06/18 08:32:28;;;;;;;6.65;1.85;;;;;;;24.04;63.50;100994.83;1687189;85;20926;-79
2021/06/18 08:34:58;;;;;;;5.20;2.65;;;;;;;24.16;63.65;100996.89;1688319;84;21128;-76
2021/06/18 08:37:25;;;;;;;10.65;2.60;;;;;;;24.28;63.16;100997.28;1686638;85;21099;-75
2021/06/18 08:39:56;;;;;;;2.83;1.52;;;;;;;24.34;61.88;100993.91;1630445;86;22327;-76
2021/06/18 08:42:24;;;;;;;10.20;2.62;;;;;;;24.33;60.70;100994.90;1685515;82;21056;-76
2021/06/18 08:44:52;;;;;;;3.75;2.33;;;;;;;24.29;60.88;100988.30;1685971;85;21073;-74
2021/06/18 08:47:22;;;;;;;6.08;2.00;;;;;;;24.25;60.09;100993.64;1655930;86;21089;-74
2021/06/18 08:49:51;;;;;;;5.22;2.22;;;;;;;24.10;61.13;100995.42;1656862;86;21024;-76
2021/06/18 08:52:18;;;;;;;5.47;2.30;;;;;;;23.96;59.66;101000.22;1657269;86;21161;-73
2021/06/18 08:54:46;;;;;;;14.58;4.37;;;;;;;23.84;61.31;101001.12;1657019;86;21080;-77
2021/06/18 08:57:16;;;;;;;3.70;1.82;;;;;;;23.91;63.25;100994.61;1688289;83;21555;-77
2021/06/18 08:59:46;;;;;;;6.08;1.90;;;;;;;24.05;63.37;101000.46;1686330;83;21045;-80
2021/06/18 09:02:14;;;;;;;6.37;2.52;;;;;;;24.13;61.07;100999.91;1686108;84;21594;-77
2021/06/18 09:05:09;;;;;;;11.65;3.30;;;;;;;24.13;60.72;100999.91;1685936;84;21969;-73
2021/06/18 09:08:02;;;;;;;14.18;2.33;;;;;;;24.12;61.92;101001.42;1686493;84;21059;-76
2021/06/18 09:10:44;;;;;;;6.43;2.20;;;;;;;24.14;62.93;100996.75;1686098;83;21110;-73
2021/06/18 09:13:22;;;;;;;3.58;2.00;;;;;;;24.27;63.14;100997.45;1659616;83;21100;-75
2021/06/18 09:15:55;;;;;;;10.53;2.98;;;;;;;24.40;61.30;100994.50;1705040;83;20940;-73
2021/06/18 09:18:33;;;;;;;;;;;;;;;24.52;59.74;100982.91;1700530;84;21164;-78
2021/06/18 09:21:13;;;;;;;5.08;1.92;;;;;;;24.60;59.91;100980.97;1713942;83;20611;-74
2021/06/18 09:24:02;;;;;;;5.58;2.08;;;;;;;24.65;58.96;100973.30;1697378;84;21050;-73
2021/06/18 09:26:34;;;;;;;6.78;2.30;;;;;;;24.75;59.68;100971.69;1760748;81;20924;-77
2021/06/18 09:29:09;;;;;;;;;;;;;;;24.86;58.53;100965.91;1700497;83;21050;-74
2021/06/18 09:32:01;;;;;;;2.40;1.77;;;;;;;24.83;57.91;100967.61;1760654;80;21065;-83
2021/06/18 09:34:50;;;;;;;4.83;1.75;;;;;;;24.84;58.50;100964.46;1760675;81;21027;-75
2021/06/18 09:37:30;;;;;;;6.35;1.90;;;;;;;24.86;58.18;100971.22;1754727;81;21015;-76
2021/06/18 09:40:16;;;;;;;7.40;1.92;;;;;;;24.86;58.12;100969.89;1718356;81;21003;-76
2021/06/18 09:42:59;;;;;;;14.40;2.95;;;;;;;24.95;58.17;100970.62;1730697;82;21653;-75
2021/06/18 09:45:30;;;;;;;2.85;2.27;;;;;;;25.03;57.68;100971.33;1730531;82;21128;-73
2021/06/18 09:48:21;;;;;;;8.80;2.72;;;;;;;25.07;56.79;100958.00;1730659;82;21063;-74
2021/06/18 09:50:52;;;;;;;7.95;3.85;;;;;;;25.08;57.09;100965.47;1730647;82;32599;-77
2021/06/18 09:53:24;;;;;;;5.42;2.65;;;;;;;25.10;58.16;100968.25;1730070;82;21007;-82
2021/06/18 09:56:15;;;;;;;6.58;2.05;;;;;;;25.20;57.19;100966.61;1730574;82;21079;-74
2021/06/18 09:58:45;;;;;;;9.03;2.52;;;;;;;25.27;56.56;100964.33;1730835;82;21122;-78
2021/06/18 10:01:25;;;;;;;21.27;3.72;;;;;;;25.40;56.56;100966.28;1731147;82;21055;-72
2021/06/18 10:04:05;;;;;;;12.90;2.45;;;;;;;25.92;56.38;100959.30;1730894;82;21004;-79
2021/06/18 10:06:35;;;;;;;2.65;1.67;;;;;;;26.24;54.06;100964.55;1730947;82;21840;-73
2021/06/18 10:09:05;;;;;;;9.58;2.20;;;;;;;26.43;53.86;100967.84;1730948;82;21153;-81
2021/06/18 10:11:33;;;;;;;6.55;1.82;;;;;;;26.50;53.41;100968.70;1738600;81;21784;-74
2021/06/18 10:14:00;;;;;;;4.72;2.12;;;;;;;26.45;52.85;100965.82;1753933;81;21580;-79
2021/06/18 10:16:28;;;;;;;13.62;2.37;;;;;;;26.39;53.17;100975.09;1753598;81;21030;-76
2021/06/18 10:18:58;;;;;;;9.40;2.35;;;;;;;26.35;53.40;100972.51;1753716;81;21622;-72
2021/06/18 10:21:25;;;;;;;6.85;2.20;;;;;;;26.29;52.97;100969.59;1736671;81;21126;-77
2021/06/18 10:24:00;;;;;;;8.18;2.60;;;;;;;26.20;53.72;100972.61;1737291;81;21132;-75
2021/06/18 10:26:28;;;;;;;5.42;2.12;;;;;;;26.10;54.19;100970.27;1723706;83;21006;-75
2021/06/18 10:28:59;;;;;;;6.90;2.15;;;;;;;26.04;53.88;100971.55;1723552;83;21013;-78
2021/06/18 10:31:35;;;;;;;8.87;2.13;;;;;;;26.06;54.82;100972.19;1724217;83;21018;-78
2021/06/18 10:34:21;;;;;;;6.65;1.95;;;;;;;26.16;55.17;100977.52;1724080;83;20994;-78
2021/06/18 10:36:48;;;;;;;2.17;1.72;;;;;;;26.20;53.41;100964.62;1668316;83;21128;-72
2021/06/18 10:39:19;;;;;;;4.72;2.00;;;;;;;26.22;54.31;100971.92;1670026;83;21049;-82
2021/06/18 10:41:55;;;;;;;10.60;1.82;;;;;;;26.20;51.79;100962.79;1723629;83;21077;-76
2021/06/18 10:44:45;;;;;;;9.03;2.33;;;;;;;26.11;52.98;100976.41;1724179;83;20990;-78
2021/06/18 10:47:36;;;;;;;9.93;2.70;;;;;;;25.97;53.63;100974.69;1724023;83;21077;-77
2021/06/18 10:50:02;;;;;;;5.15;2.20;;;;;;;25.80;53.80;100983.45;1723698;83;21300;-74
2021/06/18 10:52:40;;;;;;;6.90;2.10;;;;;;;25.75;54.00;100972.58;1722751;83;21667;-72
2021/06/18 10:55:07;;;;;;;4.20;1.70;;;;;;;25.75;52.65;100981.36;1723798;83;21045;-77
2021/06/18 10:57:36;;;;;;;7.33;2.05;;;;;;;25.72;53.61;100982.24;1723416;83;21078;-72
2021/06/18 11:00:14;;;;;;;6.70;2.42;;;;;;;25.73;54.17;100973.27;1724187;83;20978;-75
2021/06/18 11:02:44;;;;;;;6.85;2.33;;;;;;;25.82;55.05;100980.58;1724063;82;21775;-78
2021/06/18 11:05:32;;;;;;;6.83;1.80;;;;;;;25.96;53.79;100977.85;1692260;83;21571;-75
2021/06/18 11:08:20;;;;;;;6.95;1.67;;;;;;;26.06;53.54;100977.01;1660847;83;21091;-74
2021/06/18 11:10:49;;;;;;;4.95;1.65;;;;;;;26.07;53.47;100975.97;1722918;83;21019;-74
2021/06/18 11:13:18;;;;;;;7.12;1.77;;;;;;;26.14;55.41;100976.84;1703542;83;21067;-73
2021/06/18 11:15:47;;;;;;;9.58;2.67;;;;;;;26.26;55.61;100971.31;1681281;83;20952;-77
2021/06/18 11:18:18;;;;;;;6.97;1.98;;;;;;;26.33;53.17;100975.85;1708434;83;21055;-79
2021/06/18 11:20:50;;;;;;;3.95;1.80;;;;;;;26.40;52.18;100964.74;1708477;83;20967;-73
2021/06/18 11:23:24;;;;;;;6.87;1.50;;;;;;;26.75;51.46;100961.02;1707565;82;21087;-74
2021/06/18 11:26:02;;;;;;;3.45;1.60;;;;;;;27.02;50.67;100964.12;1728995;82;21522;-75
2021/06/18 11:28:41;;;;;;;9.53;2.27;;;;;;;27.28;49.53;100967.36;1738051;82;21545;-78
2021/06/18 11:31:22;;;;;;;9.58;1.87;;;;;;;27.37;49.49;100962.66;1717192;81;21055;-75
2021/06/18 11:33:55;;;;;;;8.10;2.10;;;;;;;27.28;49.11;100962.03;1709908;83;21074;-78
2021/06/18 11:36:35;;;;;;;4.22;1.92;;;;;;;27.27;49.85;100966.54;1703325;83;21035;-79